Laguna Blanca, Argentina
Current Conditions -  °F | °C
As of 2:00 AM on Sunday 26 Oct 2014 (Local Time) from SGAS Reporting Station
Clear Clear  
Wind Chill: 73°   Ceiling: Unl
Heat Index: 73°   Visibility: 5mi
Dew Point: 64°   Wind: 0mph
Humidity: 73%   Direction: NA
Pressure: 29.77"   Gusts: NA
Location:  25.13°S, 58.25°W
Report Text: SGAS 260500Z 00000KT 8000 NSC 23/18 Q1008
Loading
Personal Weather Stations






























Interactive Weather Map
Tropical Storm Tracking
New forecast layout! Learn more

10-Day Weather Forecast

Advertisements
Track Severe Weather on mobile